sensor_id;sensor_type;location;lat;lon;timestamp;temperature;humidity
7218;DHT22;3650;53.580;10.094;2023-04-15T00:00:10;10.10;94.00
7218;DHT22;3650;53.580;10.094;2023-04-15T00:02:37;10.10;93.80
7218;DHT22;3650;53.580;10.094;2023-04-15T00:05:04;10.10;93.90
7218;DHT22;3650;53.580;10.094;2023-04-15T00:07:33;10.10;94.10
7218;DHT22;3650;53.580;10.094;2023-04-15T00:10:00;10.10;94.30
7218;DHT22;3650;53.580;10.094;2023-04-15T00:12:27;10.00;94.70
7218;DHT22;3650;53.580;10.094;2023-04-15T00:14:54;10.00;94.90
7218;DHT22;3650;53.580;10.094;2023-04-15T00:17:21;10.00;95.00
7218;DHT22;3650;53.580;10.094;2023-04-15T00:19:48;10.00;95.00
7218;DHT22;3650;53.580;10.094;2023-04-15T00:22:15;10.00;95.00
7218;DHT22;3650;53.580;10.094;2023-04-15T00:24:43;10.00;95.50
7218;DHT22;3650;53.580;10.094;2023-04-15T00:27:10;10.00;95.30
7218;DHT22;3650;53.580;10.094;2023-04-15T00:29:37;10.00;95.40
7218;DHT22;3650;53.580;10.094;2023-04-15T00:32:04;10.00;95.50
7218;DHT22;3650;53.580;10.094;2023-04-15T00:34:31;9.90;96.10
7218;DHT22;3650;53.580;10.094;2023-04-15T00:36:57;9.90;96.30
7218;DHT22;3650;53.580;10.094;2023-04-15T00:39:25;10.00;96.20
7218;DHT22;3650;53.580;10.094;2023-04-15T00:41:54;9.90;96.60
7218;DHT22;3650;53.580;10.094;2023-04-15T00:44:21;9.90;96.70
7218;DHT22;3650;53.580;10.094;2023-04-15T00:46:50;9.90;96.90
7218;DHT22;3650;53.580;10.094;2023-04-15T00:49:17;9.90;97.10
7218;DHT22;3650;53.580;10.094;2023-04-15T00:51:44;9.80;97.20
7218;DHT22;3650;53.580;10.094;2023-04-15T00:54:11;9.90;97.30
7218;DHT22;3650;53.580;10.094;2023-04-15T00:56:38;9.90;97.60
7218;DHT22;3650;53.580;10.094;2023-04-15T00:59:07;9.90;97.90
7218;DHT22;3650;53.580;10.094;2023-04-15T01:01:35;9.90;98.00
7218;DHT22;3650;53.580;10.094;2023-04-15T01:04:02;9.90;98.00
7218;DHT22;3650;53.580;10.094;2023-04-15T01:06:30;9.90;98.10
7218;DHT22;3650;53.580;10.094;2023-04-15T01:08:57;9.90;98.30
7218;DHT22;3650;53.580;10.094;2023-04-15T01:11:24;9.90;98.10
7218;DHT22;3650;53.580;10.094;2023-04-15T01:13:51;9.90;98.40
7218;DHT22;3650;53.580;10.094;2023-04-15T01:16:20;9.90;98.50
7218;DHT22;3650;53.580;10.094;2023-04-15T01:18:47;9.90;98.50
7218;DHT22;3650;53.580;10.094;2023-04-15T01:21:14;9.90;98.60
7218;DHT22;3650;53.580;10.094;2023-04-15T01:23:44;9.90;98.70
7218;DHT22;3650;53.580;10.094;2023-04-15T01:26:13;9.80;98.80
7218;DHT22;3650;53.580;10.094;2023-04-15T01:28:41;9.80;98.80
7218;DHT22;3650;53.580;10.094;2023-04-15T01:31:09;9.80;98.80
7218;DHT22;3650;53.580;10.094;2023-04-15T01:33:37;9.80;99.10
7218;DHT22;3650;53.580;10.094;2023-04-15T01:36:05;9.80;99.30
7218;DHT22;3650;53.580;10.094;2023-04-15T01:38:33;9.80;99.60
7218;DHT22;3650;53.580;10.094;2023-04-15T01:41:00;9.80;99.70
7218;DHT22;3650;53.580;10.094;2023-04-15T01:43:28;9.80;99.80
7218;DHT22;3650;53.580;10.094;2023-04-15T01:45:55;9.80;99.90
7218;DHT22;3650;53.580;10.094;2023-04-15T01:48:22;9.80;99.80
7218;DHT22;3650;53.580;10.094;2023-04-15T01:50:49;9.80;99.70
7218;DHT22;3650;53.580;10.094;2023-04-15T01:53:16;9.80;99.70
7218;DHT22;3650;53.580;10.094;2023-04-15T01:55:43;9.80;99.70
7218;DHT22;3650;53.580;10.094;2023-04-15T01:58:10;9.80;99.90
7218;DHT22;3650;53.580;10.094;2023-04-15T02:00:38;9.80;99.90
7218;DHT22;3650;53.580;10.094;2023-04-15T02:03:05;9.80;99.90
7218;DHT22;3650;53.580;10.094;2023-04-15T02:05:32;9.80;99.90
7218;DHT22;3650;53.580;10.094;2023-04-15T02:07:59;9.80;99.90
7218;DHT22;3650;53.580;10.094;2023-04-15T02:10:26;9.80;99.90
7218;DHT22;3650;53.580;10.094;2023-04-15T02:12:52;9.80;99.90
7218;DHT22;3650;53.580;10.094;2023-04-15T02:15:19;9.80;99.90
7218;DHT22;3650;53.580;10.094;2023-04-15T02:17:47;9.80;99.90
7218;DHT22;3650;53.580;10.094;2023-04-15T02:20:15;9.80;99.90
7218;DHT22;3650;53.580;10.094;2023-04-15T02:22:43;9.80;99.90
7218;DHT22;3650;53.580;10.094;2023-04-15T02:25:10;9.80;99.90
7218;DHT22;3650;53.580;10.094;2023-04-15T02:27:37;9.90;99.90
7218;DHT22;3650;53.580;10.094;2023-04-15T02:30:04;9.90;99.90
7218;DHT22;3650;53.580;10.094;2023-04-15T02:32:32;9.90;99.90
7218;DHT22;3650;53.580;10.094;2023-04-15T02:35:03;9.90;99.90
7218;DHT22;3650;53.580;10.094;2023-04-15T02:37:30;9.90;99.90
7218;DHT22;3650;53.580;10.094;2023-04-15T02:40:00;9.90;99.90
7218;DHT22;3650;53.580;10.094;2023-04-15T02:42:26;9.90;99.90
7218;DHT22;3650;53.580;10.094;2023-04-15T02:44:55;9.80;99.90
7218;DHT22;3650;53.580;10.094;2023-04-15T02:47:22;9.90;99.90
7218;DHT22;3650;53.580;10.094;2023-04-15T02:49:49;9.90;99.90
7218;DHT22;3650;53.580;10.094;2023-04-15T02:52:17;9.90;99.90
7218;DHT22;3650;53.580;10.094;2023-04-15T02:54:44;9.90;99.90
7218;DHT22;3650;53.580;10.094;2023-04-15T02:57:11;9.80;99.90
7218;DHT22;3650;53.580;10.094;2023-04-15T02:59:38;9.90;99.90
7218;DHT22;3650;53.580;10.094;2023-04-15T03:02:05;9.90;99.90
7218;DHT22;3650;53.580;10.094;2023-04-15T03:04:32;9.90;99.90
7218;DHT22;3650;53.580;10.094;2023-04-15T03:07:00;9.90;99.90
7218;DHT22;3650;53.580;10.094;2023-04-15T03:09:28;9.90;99.90
7218;DHT22;3650;53.580;10.094;2023-04-15T03:11:55;9.90;99.90
7218;DHT22;3650;53.580;10.094;2023-04-15T03:14:21;9.90;99.90
7218;DHT22;3650;53.580;10.094;2023-04-15T03:16:48;9.90;99.90
7218;DHT22;3650;53.580;10.094;2023-04-15T03:19:16;9.90;99.90
7218;DHT22;3650;53.580;10.094;2023-04-15T03:21:43;9.90;99.90
7218;DHT22;3650;53.580;10.094;2023-04-15T03:24:10;9.90;99.90
7218;DHT22;3650;53.580;10.094;2023-04-15T03:26:38;9.90;99.90
7218;DHT22;3650;53.580;10.094;2023-04-15T03:29:05;9.90;99.90
7218;DHT22;3650;53.580;10.094;2023-04-15T03:31:32;9.90;99.90
7218;DHT22;3650;53.580;10.094;2023-04-15T03:33:58;9.90;99.90
7218;DHT22;3650;53.580;10.094;2023-04-15T03:36:27;9.90;99.90
7218;DHT22;3650;53.580;10.094;2023-04-15T03:38:54;9.90;99.90
7218;DHT22;3650;53.580;10.094;2023-04-15T03:41:22;9.90;99.90
7218;DHT22;3650;53.580;10.094;2023-04-15T03:43:50;9.90;99.90
7218;DHT22;3650;53.580;10.094;2023-04-15T03:46:17;9.90;99.90
7218;DHT22;3650;53.580;10.094;2023-04-15T03:48:44;9.90;99.90
7218;DHT22;3650;53.580;10.094;2023-04-15T03:51:10;9.90;99.90
7218;DHT22;3650;53.580;10.094;2023-04-15T03:53:37;9.90;99.90
7218;DHT22;3650;53.580;10.094;2023-04-15T03:56:04;9.90;99.90
7218;DHT22;3650;53.580;10.094;2023-04-15T03:58:31;9.90;99.90
7218;DHT22;3650;53.580;10.094;2023-04-15T04:00:59;9.90;99.90
7218;DHT22;3650;53.580;10.094;2023-04-15T04:03:26;10.00;99.90
7218;DHT22;3650;53.580;10.094;2023-04-15T04:05:53;9.90;99.90
7218;DHT22;3650;53.580;10.094;2023-04-15T04:08:20;9.90;99.90
7218;DHT22;3650;53.580;10.094;2023-04-15T04:10:46;9.90;99.90
7218;DHT22;3650;53.580;10.094;2023-04-15T04:13:13;9.90;99.90
7218;DHT22;3650;53.580;10.094;2023-04-15T04:15:40;9.90;99.90
7218;DHT22;3650;53.580;10.094;2023-04-15T04:18:08;9.90;99.90
7218;DHT22;3650;53.580;10.094;2023-04-15T04:20:35;9.90;99.90
7218;DHT22;3650;53.580;10.094;2023-04-15T04:23:02;9.90;99.90
7218;DHT22;3650;53.580;10.094;2023-04-15T04:25:28;9.90;99.90
7218;DHT22;3650;53.580;10.094;2023-04-15T04:27:56;9.90;99.90
7218;DHT22;3650;53.580;10.094;2023-04-15T04:30:22;9.90;99.90
7218;DHT22;3650;53.580;10.094;2023-04-15T04:32:49;9.90;99.90
7218;DHT22;3650;53.580;10.094;2023-04-15T04:35:17;9.90;99.90
7218;DHT22;3650;53.580;10.094;2023-04-15T04:37:45;9.90;99.90
7218;DHT22;3650;53.580;10.094;2023-04-15T04:40:12;9.90;99.90
7218;DHT22;3650;53.580;10.094;2023-04-15T04:42:39;10.00;99.90
7218;DHT22;3650;53.580;10.094;2023-04-15T04:45:06;9.90;99.90
7218;DHT22;3650;53.580;10.094;2023-04-15T04:47:33;9.90;99.90
7218;DHT22;3650;53.580;10.094;2023-04-15T04:50:00;9.90;99.90
7218;DHT22;3650;53.580;10.094;2023-04-15T04:52:28;9.90;99.90
7218;DHT22;3650;53.580;10.094;2023-04-15T04:54:55;10.00;99.90
7218;DHT22;3650;53.580;10.094;2023-04-15T04:57:22;10.00;99.90
7218;DHT22;3650;53.580;10.094;2023-04-15T04:59:48;10.00;99.90
7218;DHT22;3650;53.580;10.094;2023-04-15T05:02:15;10.00;99.90
7218;DHT22;3650;53.580;10.094;2023-04-15T05:04:42;9.90;99.90
7218;DHT22;3650;53.580;10.094;2023-04-15T05:07:09;9.90;99.90
7218;DHT22;3650;53.580;10.094;2023-04-15T05:09:37;10.00;99.90
7218;DHT22;3650;53.580;10.094;2023-04-15T05:12:04;9.90;99.90
7218;DHT22;3650;53.580;10.094;2023-04-15T05:14:32;10.00;99.90
7218;DHT22;3650;53.580;10.094;2023-04-15T05:16:58;10.00;99.90
7218;DHT22;3650;53.580;10.094;2023-04-15T05:19:25;10.00;99.90
7218;DHT22;3650;53.580;10.094;2023-04-15T05:21:52;10.00;99.90
7218;DHT22;3650;53.580;10.094;2023-04-15T05:24:19;10.00;99.90
7218;DHT22;3650;53.580;10.094;2023-04-15T05:26:48;10.00;99.90
7218;DHT22;3650;53.580;10.094;2023-04-15T05:29:14;10.00;99.90
7218;DHT22;3650;53.580;10.094;2023-04-15T05:31:42;10.00;99.90
7218;DHT22;3650;53.580;10.094;2023-04-15T05:34:08;10.00;99.90
7218;DHT22;3650;53.580;10.094;2023-04-15T05:36:36;10.00;99.90
7218;DHT22;3650;53.580;10.094;2023-04-15T05:39:03;10.10;99.90
7218;DHT22;3650;53.580;10.094;2023-04-15T05:41:29;10.10;99.90
7218;DHT22;3650;53.580;10.094;2023-04-15T05:43:58;10.10;99.90
7218;DHT22;3650;53.580;10.094;2023-04-15T05:46:25;10.10;99.90
7218;DHT22;3650;53.580;10.094;2023-04-15T05:48:51;10.10;99.90
7218;DHT22;3650;53.580;10.094;2023-04-15T05:51:18;10.10;99.90
7218;DHT22;3650;53.580;10.094;2023-04-15T05:53:45;10.20;99.90
7218;DHT22;3650;53.580;10.094;2023-04-15T05:56:12;10.20;99.90
7218;DHT22;3650;53.580;10.094;2023-04-15T05:58:39;10.20;99.90
7218;DHT22;3650;53.580;10.094;2023-04-15T06:01:07;10.20;99.90
7218;DHT22;3650;53.580;10.094;2023-04-15T06:03:34;10.20;99.90
7218;DHT22;3650;53.580;10.094;2023-04-15T06:06:01;10.20;99.90
7218;DHT22;3650;53.580;10.094;2023-04-15T06:08:28;10.20;99.90
7218;DHT22;3650;53.580;10.094;2023-04-15T06:10:54;10.20;99.90
7218;DHT22;3650;53.580;10.094;2023-04-15T06:13:21;10.20;99.90
7218;DHT22;3650;53.580;10.094;2023-04-15T06:15:48;10.20;99.90
7218;DHT22;3650;53.580;10.094;2023-04-15T06:18:16;10.20;99.90
7218;DHT22;3650;53.580;10.094;2023-04-15T06:20:44;10.20;99.90
7218;DHT22;3650;53.580;10.094;2023-04-15T06:23:11;10.10;99.90
7218;DHT22;3650;53.580;10.094;2023-04-15T06:25:38;10.20;99.90
7218;DHT22;3650;53.580;10.094;2023-04-15T06:28:05;10.20;99.90
7218;DHT22;3650;53.580;10.094;2023-04-15T06:30:32;10.20;99.90
7218;DHT22;3650;53.580;10.094;2023-04-15T06:32:58;10.20;99.90
7218;DHT22;3650;53.580;10.094;2023-04-15T06:35:26;10.20;99.90
7218;DHT22;3650;53.580;10.094;2023-04-15T06:37:53;10.20;99.90
7218;DHT22;3650;53.580;10.094;2023-04-15T06:40:21;10.20;99.90
7218;DHT22;3650;53.580;10.094;2023-04-15T06:42:47;10.20;99.90
7218;DHT22;3650;53.580;10.094;2023-04-15T06:45:14;10.10;99.90
7218;DHT22;3650;53.580;10.094;2023-04-15T06:47:41;10.20;99.90
7218;DHT22;3650;53.580;10.094;2023-04-15T06:50:09;10.20;99.90
7218;DHT22;3650;53.580;10.094;2023-04-15T06:52:37;10.20;99.90
7218;DHT22;3650;53.580;10.094;2023-04-15T06:55:05;10.20;99.90
7218;DHT22;3650;53.580;10.094;2023-04-15T06:57:32;10.20;99.90
7218;DHT22;3650;53.580;10.094;2023-04-15T06:59:59;10.20;99.90
7218;DHT22;3650;53.580;10.094;2023-04-15T07:02:26;10.20;99.90
7218;DHT22;3650;53.580;10.094;2023-04-15T07:04:52;10.20;99.90
7218;DHT22;3650;53.580;10.094;2023-04-15T07:07:20;10.20;99.90
7218;DHT22;3650;53.580;10.094;2023-04-15T07:09:48;10.20;99.90
7218;DHT22;3650;53.580;10.094;2023-04-15T07:12:15;10.20;99.90
7218;DHT22;3650;53.580;10.094;2023-04-15T07:14:41;10.20;99.90
7218;DHT22;3650;53.580;10.094;2023-04-15T07:17:09;10.20;99.90
7218;DHT22;3650;53.580;10.094;2023-04-15T07:19:35;10.20;99.90
7218;DHT22;3650;53.580;10.094;2023-04-15T07:22:02;10.20;99.90
7218;DHT22;3650;53.580;10.094;2023-04-15T07:24:29;10.20;99.90
7218;DHT22;3650;53.580;10.094;2023-04-15T07:26:58;10.20;99.90
7218;DHT22;3650;53.580;10.094;2023-04-15T07:29:25;10.30;99.90
7218;DHT22;3650;53.580;10.094;2023-04-15T07:31:51;10.20;99.90
7218;DHT22;3650;53.580;10.094;2023-04-15T07:34:18;10.20;99.90
7218;DHT22;3650;53.580;10.094;2023-04-15T07:36:46;10.20;99.90
7218;DHT22;3650;53.580;10.094;2023-04-15T07:39:14;10.20;99.90
7218;DHT22;3650;53.580;10.094;2023-04-15T07:41:41;10.30;99.90
7218;DHT22;3650;53.580;10.094;2023-04-15T07:44:10;10.30;99.90
7218;DHT22;3650;53.580;10.094;2023-04-15T07:46:37;10.30;99.90
7218;DHT22;3650;53.580;10.094;2023-04-15T07:49:03;10.30;99.90
7218;DHT22;3650;53.580;10.094;2023-04-15T07:51:30;10.30;99.90
7218;DHT22;3650;53.580;10.094;2023-04-15T07:53:57;10.40;99.90
7218;DHT22;3650;53.580;10.094;2023-04-15T07:56:24;10.40;99.90
7218;DHT22;3650;53.580;10.094;2023-04-15T07:58:52;10.40;99.90
7218;DHT22;3650;53.580;10.094;2023-04-15T08:01:20;10.40;99.90
7218;DHT22;3650;53.580;10.094;2023-04-15T08:03:47;10.40;99.90
7218;DHT22;3650;53.580;10.094;2023-04-15T08:06:14;10.50;99.90
7218;DHT22;3650;53.580;10.094;2023-04-15T08:08:40;10.40;99.90
7218;DHT22;3650;53.580;10.094;2023-04-15T08:11:08;10.40;99.90
7218;DHT22;3650;53.580;10.094;2023-04-15T08:13:34;10.50;99.90
7218;DHT22;3650;53.580;10.094;2023-04-15T08:16:16;10.50;99.90
7218;DHT22;3650;53.580;10.094;2023-04-15T08:18:45;10.40;99.90
7218;DHT22;3650;53.580;10.094;2023-04-15T08:21:12;10.50;99.90
7218;DHT22;3650;53.580;10.094;2023-04-15T08:23:39;10.50;99.90
7218;DHT22;3650;53.580;10.094;2023-04-15T08:26:07;10.50;99.90
7218;DHT22;3650;53.580;10.094;2023-04-15T08:28:36;10.50;99.90
7218;DHT22;3650;53.580;10.094;2023-04-15T08:31:10;10.50;99.90
7218;DHT22;3650;53.580;10.094;2023-04-15T08:33:39;10.60;99.90
7218;DHT22;3650;53.580;10.094;2023-04-15T08:36:15;10.60;99.90
7218;DHT22;3650;53.580;10.094;2023-04-15T08:38:45;10.60;99.90
7218;DHT22;3650;53.580;10.094;2023-04-15T08:41:24;10.60;99.90
7218;DHT22;3650;53.580;10.094;2023-04-15T08:43:57;10.60;99.90
7218;DHT22;3650;53.580;10.094;2023-04-15T08:46:28;10.60;99.90
7218;DHT22;3650;53.580;10.094;2023-04-15T08:48:58;10.60;99.90
7218;DHT22;3650;53.580;10.094;2023-04-15T08:51:31;10.60;99.90
7218;DHT22;3650;53.580;10.094;2023-04-15T08:54:02;10.60;99.90
7218;DHT22;3650;53.580;10.094;2023-04-15T08:56:32;10.70;99.90
7218;DHT22;3650;53.580;10.094;2023-04-15T08:59:02;10.70;99.90
7218;DHT22;3650;53.580;10.094;2023-04-15T09:01:31;10.70;99.90
7218;DHT22;3650;53.580;10.094;2023-04-15T09:04:05;10.80;99.90
7218;DHT22;3650;53.580;10.094;2023-04-15T09:06:34;10.80;99.90
7218;DHT22;3650;53.580;10.094;2023-04-15T09:09:04;10.80;99.90
7218;DHT22;3650;53.580;10.094;2023-04-15T09:11:32;10.80;99.90
7218;DHT22;3650;53.580;10.094;2023-04-15T09:14:02;10.90;99.90
7218;DHT22;3650;53.580;10.094;2023-04-15T09:16:55;10.80;99.90
7218;DHT22;3650;53.580;10.094;2023-04-15T09:19:24;10.80;99.90
7218;DHT22;3650;53.580;10.094;2023-04-15T09:21:55;10.90;99.90
7218;DHT22;3650;53.580;10.094;2023-04-15T09:24:24;10.90;99.90
7218;DHT22;3650;53.580;10.094;2023-04-15T09:26:54;10.90;99.90
7218;DHT22;3650;53.580;10.094;2023-04-15T09:29:25;11.00;99.90
7218;DHT22;3650;53.580;10.094;2023-04-15T09:31:53;11.00;99.90
7218;DHT22;3650;53.580;10.094;2023-04-15T09:34:34;11.00;99.90
7218;DHT22;3650;53.580;10.094;2023-04-15T09:37:07;11.10;99.90
7218;DHT22;3650;53.580;10.094;2023-04-15T09:39:46;11.20;99.90
7218;DHT22;3650;53.580;10.094;2023-04-15T09:42:18;11.20;99.90
7218;DHT22;3650;53.580;10.094;2023-04-15T09:44:49;11.30;99.90
7218;DHT22;3650;53.580;10.094;2023-04-15T09:47:29;11.30;99.90
7218;DHT22;3650;53.580;10.094;2023-04-15T09:50:01;11.40;99.90
7218;DHT22;3650;53.580;10.094;2023-04-15T09:52:41;11.40;99.90
7218;DHT22;3650;53.580;10.094;2023-04-15T09:55:13;11.40;99.90
7218;DHT22;3650;53.580;10.094;2023-04-15T09:57:42;11.50;99.90
7218;DHT22;3650;53.580;10.094;2023-04-15T10:00:11;11.50;99.90
7218;DHT22;3650;53.580;10.094;2023-04-15T10:02:42;11.60;99.90
7218;DHT22;3650;53.580;10.094;2023-04-15T10:05:10;11.60;99.90
7218;DHT22;3650;53.580;10.094;2023-04-15T10:07:41;11.70;99.90
7218;DHT22;3650;53.580;10.094;2023-04-15T10:10:08;11.70;99.90
7218;DHT22;3650;53.580;10.094;2023-04-15T10:12:37;11.80;99.90
7218;DHT22;3650;53.580;10.094;2023-04-15T10:15:05;11.90;99.90
7218;DHT22;3650;53.580;10.094;2023-04-15T10:17:35;11.90;99.90
7218;DHT22;3650;53.580;10.094;2023-04-15T10:20:03;12.00;99.90
7218;DHT22;3650;53.580;10.094;2023-04-15T10:22:31;12.10;99.90
7218;DHT22;3650;53.580;10.094;2023-04-15T10:24:59;12.20;99.90
7218;DHT22;3650;53.580;10.094;2023-04-15T10:27:29;12.30;99.90
7218;DHT22;3650;53.580;10.094;2023-04-15T10:29:56;12.40;99.90
7218;DHT22;3650;53.580;10.094;2023-04-15T10:32:23;12.40;99.90
7218;DHT22;3650;53.580;10.094;2023-04-15T10:34:51;12.40;99.90
7218;DHT22;3650;53.580;10.094;2023-04-15T10:37:20;12.50;99.40
7218;DHT22;3650;53.580;10.094;2023-04-15T10:39:48;12.60;99.90
7218;DHT22;3650;53.580;10.094;2023-04-15T10:42:17;12.70;99.40
7218;DHT22;3650;53.580;10.094;2023-04-15T10:44:48;12.70;99.40
7218;DHT22;3650;53.580;10.094;2023-04-15T10:47:17;12.80;99.20
7218;DHT22;3650;53.580;10.094;2023-04-15T10:49:49;12.80;98.30
7218;DHT22;3650;53.580;10.094;2023-04-15T10:52:21;12.80;97.80
7218;DHT22;3650;53.580;10.094;2023-04-15T10:54:48;12.80;97.90
7218;DHT22;3650;53.580;10.094;2023-04-15T10:57:21;12.90;98.20
7218;DHT22;3650;53.580;10.094;2023-04-15T11:00:11;12.90;98.60
7218;DHT22;3650;53.580;10.094;2023-04-15T11:02:40;13.00;98.50
7218;DHT22;3650;53.580;10.094;2023-04-15T11:05:07;13.00;98.10
7218;DHT22;3650;53.580;10.094;2023-04-15T11:07:40;13.10;97.50
7218;DHT22;3650;53.580;10.094;2023-04-15T11:13:21;13.20;97.10
7218;DHT22;3650;53.580;10.094;2023-04-15T11:15:49;13.20;95.10
7218;DHT22;3650;53.580;10.094;2023-04-15T11:18:18;13.20;93.90
7218;DHT22;3650;53.580;10.094;2023-04-15T11:20:46;13.20;93.80
7218;DHT22;3650;53.580;10.094;2023-04-15T11:23:16;13.20;93.70
7218;DHT22;3650;53.580;10.094;2023-04-15T11:25:43;13.30;94.10
7218;DHT22;3650;53.580;10.094;2023-04-15T11:28:11;13.20;93.30
7218;DHT22;3650;53.580;10.094;2023-04-15T11:30:41;13.30;92.50
7218;DHT22;3650;53.580;10.094;2023-04-15T11:33:09;13.30;92.60
7218;DHT22;3650;53.580;10.094;2023-04-15T11:35:36;13.30;92.70
7218;DHT22;3650;53.580;10.094;2023-04-15T11:38:08;13.30;92.50
7218;DHT22;3650;53.580;10.094;2023-04-15T11:40:37;13.40;92.00
7218;DHT22;3650;53.580;10.094;2023-04-15T11:43:05;13.30;92.10
7218;DHT22;3650;53.580;10.094;2023-04-15T11:45:32;13.30;92.20
7218;DHT22;3650;53.580;10.094;2023-04-15T11:48:08;13.30;92.50
7218;DHT22;3650;53.580;10.094;2023-04-15T11:50:35;13.30;92.20
7218;DHT22;3650;53.580;10.094;2023-04-15T11:53:10;13.40;92.40
7218;DHT22;3650;53.580;10.094;2023-04-15T11:55:47;13.40;92.50
7218;DHT22;3650;53.580;10.094;2023-04-15T11:58:16;13.50;92.10
7218;DHT22;3650;53.580;10.094;2023-04-15T12:00:47;13.50;91.10
7218;DHT22;3650;53.580;10.094;2023-04-15T12:03:25;13.60;90.70
7218;DHT22;3650;53.580;10.094;2023-04-15T12:06:19;13.60;90.40
7218;DHT22;3650;53.580;10.094;2023-04-15T12:08:55;13.60;88.70
7218;DHT22;3650;53.580;10.094;2023-04-15T12:11:34;13.70;89.20
7218;DHT22;3650;53.580;10.094;2023-04-15T12:14:15;13.70;89.60
7218;DHT22;3650;53.580;10.094;2023-04-15T12:16:44;13.70;90.00
7218;DHT22;3650;53.580;10.094;2023-04-15T12:19:13;13.70;89.30
7218;DHT22;3650;53.580;10.094;2023-04-15T12:21:44;13.70;89.90
7218;DHT22;3650;53.580;10.094;2023-04-15T12:24:13;13.70;90.20
7218;DHT22;3650;53.580;10.094;2023-04-15T12:26:46;13.70;90.30
7218;DHT22;3650;53.580;10.094;2023-04-15T12:29:27;13.60;88.00
7218;DHT22;3650;53.580;10.094;2023-04-15T12:31:57;13.70;88.50
7218;DHT22;3650;53.580;10.094;2023-04-15T12:34:28;13.70;88.00
7218;DHT22;3650;53.580;10.094;2023-04-15T12:36:56;13.70;86.60
7218;DHT22;3650;53.580;10.094;2023-04-15T12:39:24;13.70;87.50
7218;DHT22;3650;53.580;10.094;2023-04-15T12:41:53;13.70;86.10
7218;DHT22;3650;53.580;10.094;2023-04-15T12:44:22;13.70;86.60
7218;DHT22;3650;53.580;10.094;2023-04-15T12:46:50;13.60;83.40
7218;DHT22;3650;53.580;10.094;2023-04-15T12:49:20;13.60;84.20
7218;DHT22;3650;53.580;10.094;2023-04-15T12:51:50;13.60;82.80
7218;DHT22;3650;53.580;10.094;2023-04-15T12:54:18;13.60;82.70
7218;DHT22;3650;53.580;10.094;2023-04-15T12:56:45;13.60;81.70
7218;DHT22;3650;53.580;10.094;2023-04-15T12:59:12;13.60;81.80
7218;DHT22;3650;53.580;10.094;2023-04-15T13:01:39;13.60;82.50
7218;DHT22;3650;53.580;10.094;2023-04-15T13:04:06;13.60;82.70
7218;DHT22;3650;53.580;10.094;2023-04-15T13:06:33;13.60;83.20
7218;DHT22;3650;53.580;10.094;2023-04-15T13:09:02;13.60;82.50
7218;DHT22;3650;53.580;10.094;2023-04-15T13:11:29;13.60;81.20
7218;DHT22;3650;53.580;10.094;2023-04-15T13:13:58;13.60;80.00
7218;DHT22;3650;53.580;10.094;2023-04-15T13:16:26;13.60;78.50
7218;DHT22;3650;53.580;10.094;2023-04-15T13:18:53;13.60;77.90
7218;DHT22;3650;53.580;10.094;2023-04-15T13:21:20;13.60;77.90
7218;DHT22;3650;53.580;10.094;2023-04-15T13:23:48;13.70;79.10
7218;DHT22;3650;53.580;10.094;2023-04-15T13:26:16;13.70;79.40
7218;DHT22;3650;53.580;10.094;2023-04-15T13:28:43;13.70;80.50
7218;DHT22;3650;53.580;10.094;2023-04-15T13:31:10;13.70;77.50
7218;DHT22;3650;53.580;10.094;2023-04-15T13:33:37;13.70;77.50
7218;DHT22;3650;53.580;10.094;2023-04-15T13:36:05;13.80;77.50
7218;DHT22;3650;53.580;10.094;2023-04-15T13:38:32;13.80;76.70
7218;DHT22;3650;53.580;10.094;2023-04-15T13:40:59;13.80;76.00
7218;DHT22;3650;53.580;10.094;2023-04-15T13:43:27;13.80;75.60
7218;DHT22;3650;53.580;10.094;2023-04-15T13:45:54;13.90;75.90
7218;DHT22;3650;53.580;10.094;2023-04-15T13:48:21;13.90;76.00
7218;DHT22;3650;53.580;10.094;2023-04-15T13:50:48;13.90;75.20
7218;DHT22;3650;53.580;10.094;2023-04-15T13:53:15;14.00;76.90
7218;DHT22;3650;53.580;10.094;2023-04-15T13:55:42;14.10;74.80
7218;DHT22;3650;53.580;10.094;2023-04-15T13:58:09;14.10;73.60
7218;DHT22;3650;53.580;10.094;2023-04-15T14:00:38;14.10;72.20
7218;DHT22;3650;53.580;10.094;2023-04-15T14:03:05;14.10;70.10
7218;DHT22;3650;53.580;10.094;2023-04-15T14:05:32;14.10;68.40
7218;DHT22;3650;53.580;10.094;2023-04-15T14:07:59;14.20;68.80
7218;DHT22;3650;53.580;10.094;2023-04-15T14:10:25;14.20;67.50
7218;DHT22;3650;53.580;10.094;2023-04-15T14:12:56;14.30;65.50
7218;DHT22;3650;53.580;10.094;2023-04-15T14:15:24;14.30;65.80
7218;DHT22;3650;53.580;10.094;2023-04-15T14:17:54;14.30;64.30
7218;DHT22;3650;53.580;10.094;2023-04-15T14:20:22;14.30;64.50
7218;DHT22;3650;53.580;10.094;2023-04-15T14:28:08;14.30;63.40
7218;DHT22;3650;53.580;10.094;2023-04-15T14:30:43;14.50;63.40
7218;DHT22;3650;53.580;10.094;2023-04-15T14:33:11;14.30;63.00
7218;DHT22;3650;53.580;10.094;2023-04-15T14:35:38;14.40;62.60
7218;DHT22;3650;53.580;10.094;2023-04-15T14:38:05;14.40;63.00
7218;DHT22;3650;53.580;10.094;2023-04-15T14:40:35;14.50;62.40
7218;DHT22;3650;53.580;10.094;2023-04-15T14:43:14;14.50;61.90
7218;DHT22;3650;53.580;10.094;2023-04-15T14:45:41;14.60;61.70
7218;DHT22;3650;53.580;10.094;2023-04-15T14:48:08;14.50;61.30
7218;DHT22;3650;53.580;10.094;2023-04-15T14:50:38;14.60;60.60
7218;DHT22;3650;53.580;10.094;2023-04-15T14:53:05;14.50;59.80
7218;DHT22;3650;53.580;10.094;2023-04-15T14:55:33;14.70;61.00
7218;DHT22;3650;53.580;10.094;2023-04-15T14:58:05;14.70;61.00
7218;DHT22;3650;53.580;10.094;2023-04-15T15:00:32;14.50;60.00
7218;DHT22;3650;53.580;10.094;2023-04-15T15:03:03;14.50;59.70
7218;DHT22;3650;53.580;10.094;2023-04-15T15:05:37;14.50;60.50
7218;DHT22;3650;53.580;10.094;2023-04-15T15:08:05;14.50;60.50
7218;DHT22;3650;53.580;10.094;2023-04-15T15:10:32;14.50;61.30
7218;DHT22;3650;53.580;10.094;2023-04-15T15:12:58;14.50;60.20
7218;DHT22;3650;53.580;10.094;2023-04-15T15:15:25;14.50;60.90
7218;DHT22;3650;53.580;10.094;2023-04-15T15:17:54;14.60;60.90
7218;DHT22;3650;53.580;10.094;2023-04-15T15:20:21;14.50;61.20
7218;DHT22;3650;53.580;10.094;2023-04-15T15:22:50;14.50;60.20
7218;DHT22;3650;53.580;10.094;2023-04-15T15:25:20;14.70;61.20
7218;DHT22;3650;53.580;10.094;2023-04-15T15:27:47;14.50;61.30
7218;DHT22;3650;53.580;10.094;2023-04-15T15:30:14;14.50;61.40
7218;DHT22;3650;53.580;10.094;2023-04-15T15:32:41;14.60;61.90
7218;DHT22;3650;53.580;10.094;2023-04-15T15:35:09;14.60;61.10
7218;DHT22;3650;53.580;10.094;2023-04-15T15:37:36;14.70;61.30
7218;DHT22;3650;53.580;10.094;2023-04-15T15:40:06;14.50;60.00
7218;DHT22;3650;53.580;10.094;2023-04-15T15:42:33;14.50;59.60
7218;DHT22;3650;53.580;10.094;2023-04-15T15:45:06;14.50;58.80
7218;DHT22;3650;53.580;10.094;2023-04-15T15:47:33;14.50;58.40
7218;DHT22;3650;53.580;10.094;2023-04-15T15:50:20;14.50;58.50
7218;DHT22;3650;53.580;10.094;2023-04-15T15:52:46;14.40;58.80
7218;DHT22;3650;53.580;10.094;2023-04-15T15:55:16;14.40;59.80
7218;DHT22;3650;53.580;10.094;2023-04-15T15:57:47;14.30;59.50
7218;DHT22;3650;53.580;10.094;2023-04-15T16:00:14;14.30;59.50
7218;DHT22;3650;53.580;10.094;2023-04-15T16:02:42;14.20;59.30
7218;DHT22;3650;53.580;10.094;2023-04-15T16:05:09;14.30;59.20